Time;durP1;ratioP1;P1;durP2;ratioP2;P2;SDS_P1;SDS_P2;PMS_P1;PMS_P2;Temp;Humidity;BMP_temperature;BMP_pressure;BME280_temperature;BME280_humidity;BME280_pressure;Samples;Min_cycle;Max_cycle;Signal;HPM_P1;HPM_P2
2023/05/20 00:01:07;;;;;;;;;;;;;;;16.96;71.73;100897.97;5078260;28;19914;-83
2023/05/20 00:03:58;;;;;;;;;;;;;;;17.10;70.67;100898.31;5081191;28;19912;-83
2023/05/20 00:06:50;;;;;;;;;;;;;;;17.32;68.03;100898.84;5078249;28;19913;-83
2023/05/20 00:09:42;;;;;;;;;;;;;;;17.31;67.15;100902.75;5061871;28;19914;-83
2023/05/20 00:12:34;;;;;;;;;;;;;;;17.32;66.13;100885.88;5068150;28;19920;-84
2023/05/20 00:15:26;;;;;;;;;;;;;;;17.27;65.69;100879.88;5068787;28;20299;-83
2023/05/20 00:18:18;;;;;;;;;;;;;;;17.31;65.26;100878.00;5048182;28;19912;-84
2023/05/20 00:21:10;;;;;;;;;;;;;;;17.20;64.74;100882.44;5060103;28;19912;-84
2023/05/20 00:24:02;;;;;;;;;;;;;;;17.01;65.09;100883.97;5058167;28;19912;-84
2023/05/20 00:26:54;;;;;;;;;;;;;;;16.83;66.14;100876.41;5055906;28;20292;-84
2023/05/20 00:29:46;;;;;;;;;;;;;;;16.81;64.83;100876.75;5059313;28;20296;-84
2023/05/20 00:32:35;;;;;;;;;;;;;;;16.74;64.37;100871.09;5043064;28;19912;-84
2023/05/20 00:35:27;;;;;;;;;;;;;;;16.98;64.47;100873.66;5089545;28;19916;-84
2023/05/20 00:38:19;;;;;;;;;;;;;;;17.00;64.04;100860.38;5066723;28;19912;-84
2023/05/20 00:41:11;;;;;;;;;;;;;;;16.99;63.15;100858.00;5057027;28;19912;-84
2023/05/20 00:44:03;;;;;;;;;;;;;;;16.66;63.22;100858.31;5051385;28;19912;-83
2023/05/20 00:46:53;;;;;;;;;;;;;;;16.55;64.18;100854.47;5082686;28;19912;-85
2023/05/20 00:49:45;;;;;;;;;;;;;;;16.55;63.41;100851.72;5047311;28;19912;-85
2023/05/20 00:52:37;;;;;;;;;;;;;;;16.49;64.31;100856.69;5060044;28;19912;-85
2023/05/20 00:55:26;;;;;;;;;;;;;;;16.38;64.33;100852.03;5054725;28;20291;-85
2023/05/20 00:58:14;;;;;;;;;;;;;;;16.34;64.58;100860.19;5066346;28;20311;-85
2023/05/20 01:01:06;;;;;;;;;;;;;;;16.35;64.90;100861.78;5059068;28;19912;-85
2023/05/20 01:03:58;;;;;;;;;;;;;;;16.36;64.86;100860.63;5061845;28;19912;-85
2023/05/20 01:06:50;;;;;;;;;;;;;;;16.34;64.79;100862.13;5064704;28;20370;-85
2023/05/20 01:09:42;;;;;;;;;;;;;;;16.38;64.75;100860.28;5063580;28;19912;-84
2023/05/20 01:12:47;;;;;;;;;;;;;;;16.61;64.64;100855.81;5081606;28;19916;-85
2023/05/20 01:15:41;;;;;;;;;;;;;;;16.74;64.15;100849.13;5078033;28;19912;-84
2023/05/20 01:18:31;;;;;;;;;;;;;;;16.76;63.40;100843.28;5075469;28;19912;-85
2023/05/20 01:21:24;;;;;;;;;;;;;;;16.83;63.31;100838.75;5066039;28;19912;-84
2023/05/20 01:24:16;;;;;;;;;;;;;;;16.89;63.31;100831.84;5066860;28;20359;-83
2023/05/20 01:27:05;;;;;;;;;;;;;;;16.85;62.80;100828.22;5063791;28;19912;-84
2023/05/20 01:29:57;;;;;;;;;;;;;;;16.67;63.41;100829.69;5060531;28;19912;-84
2023/05/20 01:32:53;;;;;;;;;;;;;;;16.71;64.83;100830.59;5045477;28;20383;-84
2023/05/20 01:35:45;;;;;;;;;;;;;;;16.68;66.76;100837.59;5063094;28;19920;-83
2023/05/20 01:38:41;;;;;;;;;;;;;;;16.61;66.79;100836.59;5070864;28;19912;-84
2023/05/20 01:41:33;;;;;;;;;;;;;;;16.69;66.85;100827.41;5080226;28;19912;-83
2023/05/20 01:44:26;;;;;;;;;;;;;;;16.79;66.04;100823.34;5082995;28;19916;-84
2023/05/20 01:47:18;;;;;;;;;;;;;;;16.82;65.13;100819.88;5070236;28;19912;-84
2023/05/20 01:50:07;;;;;;;;;;;;;;;16.72;65.55;100815.72;5083982;28;20295;-84
2023/05/20 01:52:59;;;;;;;;;;;;;;;16.74;65.45;100810.66;5067837;28;19912;-84
2023/05/20 01:55:52;;;;;;;;;;;;;;;16.74;64.93;100796.16;5079863;28;20367;-84
2023/05/20 01:58:44;;;;;;;;;;;;;;;16.81;64.77;100797.09;5078164;28;19912;-84
2023/05/20 02:01:36;;;;;;;;;;;;;;;17.05;64.56;100785.94;5066752;28;20305;-84
2023/05/20 02:04:28;;;;;;;;;;;;;;;17.09;64.45;100788.75;5081215;28;19912;-82
2023/05/20 02:07:17;;;;;;;;;;;;;;;17.17;65.68;100792.47;5081403;28;19912;-84
2023/05/20 02:10:09;;;;;;;;;;;;;;;17.20;65.89;100789.81;5077433;28;19920;-84
2023/05/20 02:13:01;;;;;;;;;;;;;;;17.28;66.95;100793.50;5049419;28;19912;-84
2023/05/20 02:15:54;;;;;;;;;;;;;;;17.22;67.14;100787.47;5046888;28;19912;-84
2023/05/20 02:18:46;;;;;;;;;;;;;;;17.03;68.05;100788.22;5067057;28;19911;-84
2023/05/20 02:21:40;;;;;;;;;;;;;;;17.02;67.67;100788.56;5073746;28;19912;-83
2023/05/20 02:24:32;;;;;;;;;;;;;;;16.96;68.05;100779.84;5071030;28;19912;-84
2023/05/20 02:27:24;;;;;;;;;;;;;;;16.76;67.77;100783.63;5069130;28;20299;-84
2023/05/20 02:30:17;;;;;;;;;;;;;;;16.73;69.02;100778.06;5083195;28;19924;-84
2023/05/20 02:33:09;;;;;;;;;;;;;;;16.72;68.89;100776.47;5046133;28;19920;-84
2023/05/20 02:36:01;;;;;;;;;;;;;;;16.63;68.99;100776.66;5062477;28;19912;-84
2023/05/20 02:38:53;;;;;;;;;;;;;;;16.91;69.49;100771.06;5067488;28;20391;-84
2023/05/20 02:41:45;;;;;;;;;;;;;;;17.01;69.07;100778.78;5076688;28;20299;-83
2023/05/20 02:44:37;;;;;;;;;;;;;;;16.99;69.83;100778.31;5067282;28;19912;-82
2023/05/20 02:47:28;;;;;;;;;;;;;;;17.10;68.70;100777.41;5079994;28;19912;-82
2023/05/20 02:50:20;;;;;;;;;;;;;;;16.90;69.23;100769.47;5076001;28;19917;-84
2023/05/20 02:53:12;;;;;;;;;;;;;;;16.71;70.64;100770.16;5061439;28;19913;-84
2023/05/20 02:56:04;;;;;;;;;;;;;;;16.83;70.65;100761.84;5063748;28;19912;-83
2023/05/20 02:58:56;;;;;;;;;;;;;;;16.93;69.78;100753.06;5068468;28;20397;-83
2023/05/20 03:01:48;;;;;;;;;;;;;;;16.77;70.46;100752.28;5071205;28;19912;-83
2023/05/20 03:04:40;;;;;;;;;;;;;;;16.78;70.38;100748.38;5068880;28;19916;-85
2023/05/20 03:07:32;;;;;;;;;;;;;;;16.35;71.63;100749.25;5067601;28;19912;-84
2023/05/20 03:10:24;;;;;;;;;;;;;;;16.43;72.62;100750.22;5064655;28;19916;-84
2023/05/20 03:13:14;;;;;;;;;;;;;;;16.45;71.26;100747.94;5081256;28;19913;-82
2023/05/20 03:16:06;;;;;;;;;;;;;;;16.55;70.24;100750.16;5067798;28;19917;-83
2023/05/20 03:18:58;;;;;;;;;;;;;;;16.64;71.08;100745.31;5067733;28;19912;-83
2023/05/20 03:21:50;;;;;;;;;;;;;;;16.86;70.70;100741.94;5082252;28;19912;-83
2023/05/20 03:24:42;;;;;;;;;;;;;;;17.02;69.57;100739.94;5067920;28;19912;-82
2023/05/20 03:27:35;;;;;;;;;;;;;;;17.00;69.99;100746.94;5071586;28;19912;-82
2023/05/20 03:30:27;;;;;;;;;;;;;;;16.92;69.91;100739.69;5069124;28;19916;-81
2023/05/20 03:33:19;;;;;;;;;;;;;;;16.87;71.07;100740.75;5083413;28;19913;-80
2023/05/20 03:36:09;;;;;;;;;;;;;;;16.92;69.98;100734.97;5065790;28;19912;-83
2023/05/20 03:39:01;;;;;;;;;;;;;;;16.91;70.74;100725.16;5048011;28;20291;-83
2023/05/20 03:41:53;;;;;;;;;;;;;;;17.00;70.24;100733.22;5055926;28;19912;-83
2023/05/20 03:44:45;;;;;;;;;;;;;;;17.12;68.66;100735.81;5075262;28;20283;-82
2023/05/20 03:47:38;;;;;;;;;;;;;;;16.94;69.31;100745.63;5067909;28;19913;-81
2023/05/20 03:50:30;;;;;;;;;;;;;;;17.01;69.21;100737.56;5066126;28;19917;-83
2023/05/20 03:53:20;;;;;;;;;;;;;;;17.04;69.56;100740.38;5066553;28;20371;-82
2023/05/20 03:56:12;;;;;;;;;;;;;;;17.05;70.15;100730.97;5056416;28;19912;-82
2023/05/20 03:59:04;;;;;;;;;;;;;;;16.99;69.31;100734.34;5050133;28;20375;-82
2023/05/20 04:01:56;;;;;;;;;;;;;;;16.91;70.06;100738.09;5040773;28;20390;-82
2023/05/20 04:04:48;;;;;;;;;;;;;;;17.00;70.13;100739.50;5067846;28;19912;-82
2023/05/20 04:07:37;;;;;;;;;;;;;;;17.03;70.48;100736.03;5048792;28;19912;-82
2023/05/20 04:10:29;;;;;;;;;;;;;;;17.03;70.51;100733.28;5047344;28;20371;-82
2023/05/20 04:13:22;;;;;;;;;;;;;;;17.00;70.68;100730.47;5041276;28;19912;-81
2023/05/20 04:16:11;;;;;;;;;;;;;;;17.02;70.68;100726.19;5056892;28;19913;-83
2023/05/20 04:18:59;;;;;;;;;;;;;;;16.98;71.17;100725.31;5033018;28;19912;-80
2023/05/20 04:21:49;;;;;;;;;;;;;;;16.92;70.39;100724.00;5035912;28;19913;-82
2023/05/20 04:24:39;;;;;;;;;;;;;;;16.92;70.66;100726.75;5067693;28;19912;-81
2023/05/20 04:27:31;;;;;;;;;;;;;;;16.98;71.10;100728.06;5053967;28;19913;-82
2023/05/20 04:30:20;;;;;;;;;;;;;;;17.02;71.23;100731.69;5050094;28;19914;-82
2023/05/20 04:33:12;;;;;;;;;;;;;;;17.19;70.27;100726.94;5066528;28;19924;-81
2023/05/20 04:36:04;;;;;;;;;;;;;;;17.21;70.25;100730.16;5047032;28;19912;-81
2023/05/20 04:38:55;;;;;;;;;;;;;;;17.23;69.78;100727.81;5048202;28;19917;-82
2023/05/20 04:41:47;;;;;;;;;;;;;;;17.16;70.03;100722.97;5046207;28;19917;-82
2023/05/20 04:44:39;;;;;;;;;;;;;;;17.10;71.03;100716.16;5065065;28;19912;-83
2023/05/20 04:47:27;;;;;;;;;;;;;;;17.19;71.25;100718.69;5060611;28;19912;-82
2023/05/20 04:50:20;;;;;;;;;;;;;;;17.17;70.92;100721.03;5064102;28;19913;-81
2023/05/20 04:53:10;;;;;;;;;;;;;;;16.83;73.46;100706.91;5063538;28;20458;-80
2023/05/20 04:56:02;;;;;;;;;;;;;;;16.71;74.08;100712.50;5044592;28;19912;-82
2023/05/20 04:58:54;;;;;;;;;;;;;;;16.54;75.34;100702.69;5078099;28;19912;-81
2023/05/20 05:01:46;;;;;;;;;;;;;;;16.46;75.54;100692.66;5057965;28;19913;-81
2023/05/20 05:04:39;;;;;;;;;;;;;;;16.49;75.19;100691.97;5059282;28;19913;-78
2023/05/20 05:07:31;;;;;;;;;;;;;;;16.51;74.91;100686.09;5059212;28;19918;-81
2023/05/20 05:10:23;;;;;;;;;;;;;;;16.55;74.81;100689.75;5069993;28;19912;-82
2023/05/20 05:13:16;;;;;;;;;;;;;;;16.57;75.00;100681.94;5062230;28;19912;-80
2023/05/20 05:16:06;;;;;;;;;;;;;;;16.68;75.20;100683.03;5065244;28;19912;-81
2023/05/20 05:18:58;;;;;;;;;;;;;;;16.57;75.15;100676.44;5063170;28;19916;-82
2023/05/20 05:21:50;;;;;;;;;;;;;;;16.53;76.32;100676.38;5062070;28;19913;-82
2023/05/20 05:24:42;;;;;;;;;;;;;;;16.64;75.85;100687.66;5067045;28;19912;-83
2023/05/20 05:27:34;;;;;;;;;;;;;;;16.56;76.84;100677.59;5060773;28;19913;-83
2023/05/20 05:30:26;;;;;;;;;;;;;;;16.63;76.74;100673.13;5057870;28;19913;-83
2023/05/20 05:33:19;;;;;;;;;;;;;;;16.55;77.45;100670.53;5081189;28;19912;-83
2023/05/20 05:36:11;;;;;;;;;;;;;;;16.51;78.10;100658.66;5053055;28;19912;-82
2023/05/20 05:39:03;;;;;;;;;;;;;;;16.54;78.16;100660.69;5068346;28;19913;-82
2023/05/20 05:41:54;;;;;;;;;;;;;;;16.50;77.98;100659.81;5063457;28;19912;-81
2023/05/20 05:44:47;;;;;;;;;;;;;;;16.60;77.64;100653.81;5076878;28;20100;-81
2023/05/20 05:47:39;;;;;;;;;;;;;;;16.80;76.94;100658.22;5061065;28;19912;-81
2023/05/20 05:50:32;;;;;;;;;;;;;;;16.89;77.27;100656.03;5065791;28;19912;-81
2023/05/20 05:53:24;;;;;;;;;;;;;;;16.82;77.92;100655.88;5063889;28;19917;-82
2023/05/20 05:56:16;;;;;;;;;;;;;;;16.74;77.80;100659.63;5067558;28;19920;-82
2023/05/20 05:59:06;;;;;;;;;;;;;;;16.62;77.86;100659.72;5062608;28;19916;-81
2023/05/20 06:01:58;;;;;;;;;;;;;;;16.70;77.87;100667.00;5068575;28;19917;-82
2023/05/20 06:04:50;;;;;;;;;;;;;;;16.86;76.44;100662.28;5079058;28;19912;-83
2023/05/20 06:07:40;;;;;;;;;;;;;;;16.96;76.08;100661.72;5065484;28;19912;-84
2023/05/20 06:10:30;;;;;;;;;;;;;;;16.79;77.83;100661.31;5064931;28;19912;-82
2023/05/20 06:13:22;;;;;;;;;;;;;;;16.74;79.69;100669.81;5069831;28;20303;-82
2023/05/20 06:16:12;;;;;;;;;;;;;;;16.78;78.90;100666.00;5066929;28;19912;-83
2023/05/20 06:19:04;;;;;;;;;;;;;;;16.84;78.84;100664.56;5087714;28;19912;-83
2023/05/20 06:21:56;;;;;;;;;;;;;;;16.83;78.60;100659.44;5055383;28;20376;-83
2023/05/20 06:24:48;;;;;;;;;;;;;;;16.77;78.00;100666.34;5073671;28;19913;-82
2023/05/20 06:27:40;;;;;;;;;;;;;;;16.74;78.30;100676.09;5063358;28;19912;-82
2023/05/20 06:30:32;;;;;;;;;;;;;;;16.88;78.78;100670.94;5061271;28;19912;-82
2023/05/20 06:33:24;;;;;;;;;;;;;;;16.77;81.10;100678.13;5071434;28;19916;-83
2023/05/20 06:36:16;;;;;;;;;;;;;;;16.78;80.37;100678.94;5142653;22;19924;-78
2023/05/20 06:39:11;;;;;;;;;;;;;;;16.97;79.31;100674.25;5100069;28;19916;-77
2023/05/20 06:42:03;;;;;;;;;;;;;;;17.09;77.61;100670.59;5083946;28;19912;-79
2023/05/20 06:44:55;;;;;;;;;;;;;;;17.13;76.66;100670.66;5104003;28;19935;-76
2023/05/20 06:47:56;;;;;;;;;;;;;;;17.19;74.70;100671.97;5086226;28;20378;-78
2023/05/20 06:50:48;;;;;;;;;;;;;;;17.27;73.38;100674.50;5084153;28;19912;-76
2023/05/20 06:53:40;;;;;;;;;;;;;;;17.33;72.56;100678.56;5098039;28;19912;-78
2023/05/20 06:56:32;;;;;;;;;;;;;;;17.35;73.70;100683.72;5095474;28;19912;-77
2023/05/20 06:59:19;;;;;;;;;;;;;;;17.16;76.08;100676.25;5085206;28;20378;-77
2023/05/20 07:02:09;;;;;;;;;;;;;;;17.26;75.03;100685.88;5102425;27;19912;-78
2023/05/20 07:04:58;;;;;;;;;;;;;;;17.46;74.61;100680.03;5106577;27;19915;-77
2023/05/20 07:07:50;;;;;;;;;;;;;;;17.84;74.28;100681.97;5109343;27;19911;-77
2023/05/20 07:10:43;;;;;;;;;;;;;;;17.72;71.59;100701.41;5107284;28;19916;-78
2023/05/20 07:13:36;;;;;;;;;;;;;;;18.04;71.82;100690.97;5121841;27;19911;-77
2023/05/20 07:16:28;;;;;;;;;;;;;;;18.35;71.16;100685.22;5130462;27;19913;-77
2023/05/20 07:19:19;;;;;;;;;;;;;;;18.72;69.81;100676.38;5111228;28;19912;-77
2023/05/20 07:22:11;;;;;;;;;;;;;;;18.86;69.79;100676.59;5101516;28;19912;-77
2023/05/20 07:25:11;;;;;;;;;;;;;;;19.02;68.38;100671.72;5103363;27;19912;-76
2023/05/20 07:28:03;;;;;;;;;;;;;;;19.13;68.59;100674.59;5118226;27;19911;-76
2023/05/20 07:30:55;;;;;;;;;;;;;;;18.89;64.70;100677.81;5098169;28;19911;-77
2023/05/20 07:33:50;;;;;;;;;;;;;;;18.74;65.14;100674.84;5092135;28;19911;-79
2023/05/20 07:36:42;;;;;;;;;;;;;;;18.67;64.97;100672.00;5099862;28;19912;-77
2023/05/20 07:39:32;;;;;;;;;;;;;;;18.74;66.25;100672.09;5082539;28;19911;-77
2023/05/20 07:42:24;;;;;;;;;;;;;;;18.61;66.87;100664.41;5073072;28;19911;-77
2023/05/20 07:45:20;;;;;;;;;;;;;;;18.56;67.81;100660.00;5100784;28;19912;-77
2023/05/20 07:48:12;;;;;;;;;;;;;;;18.57;68.97;100658.84;5091292;28;19912;-78
2023/05/20 07:51:04;;;;;;;;;;;;;;;18.51;71.35;100663.06;5102406;28;19912;-75
2023/05/20 07:53:56;;;;;;;;;;;;;;;18.37;71.22;100666.38;5083871;28;19912;-77
2023/05/20 07:56:48;;;;;;;;;;;;;;;18.69;69.97;100669.66;5078685;28;19919;-78
2023/05/20 07:59:38;;;;;;;;;;;;;;;18.73;67.31;100664.22;5081147;28;19912;-76
2023/05/20 08:02:25;;;;;;;;;;;;;;;19.01;67.51;100661.84;5093494;28;19915;-76
2023/05/20 08:05:17;;;;;;;;;;;;;;;19.03;66.06;100661.47;5102211;28;19919;-75
2023/05/20 08:08:09;;;;;;;;;;;;;;;19.11;66.01;100663.94;5100828;28;19911;-76
2023/05/20 08:11:09;;;;;;;;;;;;;;;19.06;66.72;100666.22;5091299;28;19916;-77
2023/05/20 08:14:01;;;;;;;;;;;;;;;19.20;65.90;100675.47;5085250;28;19911;-78
2023/05/20 08:16:54;;;;;;;;;;;;;;;19.04;64.03;100680.41;5078206;28;20383;-76
2023/05/20 08:19:43;;;;;;;;;;;;;;;19.09;65.05;100684.81;5114105;28;19912;-76
2023/05/20 08:22:36;;;;;;;;;;;;;;;19.14;63.90;100690.78;5101357;28;19911;-76
2023/05/20 08:25:28;;;;;;;;;;;;;;;19.23;63.96;100693.25;5079586;28;19912;-77
2023/05/20 08:28:20;;;;;;;;;;;;;;;19.29;63.34;100697.28;5084305;28;19912;-77
2023/05/20 08:31:10;;;;;;;;;;;;;;;19.17;63.53;100703.81;5083780;28;19912;-77
2023/05/20 08:34:03;;;;;;;;;;;;;;;18.91;65.38;100703.81;5064681;28;19912;-78
2023/05/20 08:36:55;;;;;;;;;;;;;;;18.69;66.10;100710.97;5098994;28;19911;-78
2023/05/20 08:39:47;;;;;;;;;;;;;;;18.75;65.77;100717.75;5095064;28;19915;-79
2023/05/20 08:42:41;;;;;;;;;;;;;;;18.60;67.91;100718.69;5097662;28;19911;-78
2023/05/20 08:45:38;;;;;;;;;;;;;;;18.55;66.96;100713.50;5067459;28;19916;-76
2023/05/20 08:48:33;;;;;;;;;;;;;;;18.46;66.75;100712.13;5079948;28;19912;-78
2023/05/20 08:51:27;;;;;;;;;;;;;;;18.53;67.97;100709.50;5111371;28;19924;-78
2023/05/20 08:54:19;;;;;;;;;;;;;;;18.64;66.63;100716.78;5102307;28;19912;-78
2023/05/20 08:57:12;;;;;;;;;;;;;;;18.49;65.42;100711.41;5099385;28;20298;-78
2023/05/20 09:00:08;;;;;;;;;;;;;;;18.60;67.59;100721.47;5097349;28;19912;-77
2023/05/20 09:03:00;;;;;;;;;;;;;;;18.69;67.38;100721.22;5111550;28;19915;-78
2023/05/20 09:05:49;;;;;;;;;;;;;;;18.71;67.10;100719.66;5118924;28;19911;-77
2023/05/20 09:08:43;;;;;;;;;;;;;;;18.54;67.46;100722.16;5102049;28;19911;-79
2023/05/20 09:11:35;;;;;;;;;;;;;;;18.49;68.45;100720.44;5114848;28;20290;-77
2023/05/20 09:14:27;;;;;;;;;;;;;;;18.58;67.78;100723.81;5100318;28;19912;-79
2023/05/20 09:17:19;;;;;;;;;;;;;;;18.63;67.83;100726.25;5107271;28;19911;-78
2023/05/20 09:20:11;;;;;;;;;;;;;;;18.68;68.44;100728.69;5101344;28;19911;-78
2023/05/20 09:23:00;;;;;;;;;;;;;;;18.76;68.23;100733.13;5115135;28;19912;-77
2023/05/20 09:25:50;;;;;;;;;;;;;;;18.69;68.57;100733.00;5114944;28;20294;-78
2023/05/20 09:28:42;;;;;;;;;;;;;;;18.79;68.63;100729.63;5100249;28;19911;-79
2023/05/20 09:31:32;;;;;;;;;;;;;;;18.70;68.88;100736.56;5108477;28;19919;-79
2023/05/20 09:34:24;;;;;;;;;;;;;;;18.83;68.53;100728.91;5095592;28;20314;-78
2023/05/20 09:37:19;;;;;;;;;;;;;;;18.79;68.28;100726.88;5096085;28;19919;-77
2023/05/20 09:40:13;;;;;;;;;;;;;;;18.73;68.27;100724.81;5094398;28;19912;-77
2023/05/20 09:43:06;;;;;;;;;;;;;;;18.68;68.44;100723.19;5099585;27;19912;-78
2023/05/20 09:45:58;;;;;;;;;;;;;;;18.90;67.87;100724.28;5093861;28;19920;-77
2023/05/20 09:48:50;;;;;;;;;;;;;;;19.02;68.06;100726.03;5096182;27;19912;-77
2023/05/20 09:51:40;;;;;;;;;;;;;;;19.20;67.26;100722.34;5090767;28;20306;-79
2023/05/20 09:54:32;;;;;;;;;;;;;;;19.14;68.47;100723.88;5102075;28;19912;-79
2023/05/20 09:57:24;;;;;;;;;;;;;;;19.15;68.63;100721.88;5093704;27;19915;-77
2023/05/20 10:00:16;;;;;;;;;;;;;;;18.99;67.29;100719.31;5101256;28;19920;-80
2023/05/20 10:03:06;;;;;;;;;;;;;;;19.06;66.50;100718.59;5117715;28;20302;-81
2023/05/20 10:06:24;;;;;;;;;;;;;;;19.08;67.49;100714.31;5100753;28;19915;-76
2023/05/20 10:09:15;;;;;;;;;;;;;;;19.14;67.43;100710.09;5112078;28;19919;-77
2023/05/20 10:12:13;;;;;;;;;;;;;;;19.10;67.57;100711.16;5093785;27;19927;-78
2023/05/20 10:15:07;;;;;;;;;;;;;;;19.06;67.17;100700.09;5100393;28;19949;-77
2023/05/20 10:18:08;;;;;;;;;;;;;;;19.24;66.67;100700.38;5094093;28;19916;-77
2023/05/20 10:20:58;;;;;;;;;;;;;;;19.43;65.86;100700.22;5097922;28;20406;-78
2023/05/20 10:23:50;;;;;;;;;;;;;;;19.23;67.57;100698.75;5094242;28;19912;-77
2023/05/20 10:26:40;;;;;;;;;;;;;;;19.30;67.52;100698.84;5096469;28;20305;-77
2023/05/20 10:29:42;;;;;;;;;;;;;;;19.33;66.43;100700.88;5080327;28;19912;-78
2023/05/20 10:32:34;;;;;;;;;;;;;;;19.23;67.87;100688.53;5108939;28;19919;-79
2023/05/20 10:35:30;;;;;;;;;;;;;;;19.25;68.40;100677.13;5103933;28;20294;-78
2023/05/20 10:38:19;;;;;;;;;;;;;;;19.08;68.01;100677.69;5111953;28;19912;-76
2023/05/20 10:41:09;;;;;;;;;;;;;;;19.20;66.58;100681.00;5104471;28;19915;-79
2023/05/20 10:44:01;;;;;;;;;;;;;;;19.35;66.56;100662.66;5103274;28;19912;-78
2023/05/20 10:47:02;;;;;;;;;;;;;;;19.37;64.89;100662.28;5101319;28;19912;-80
2023/05/20 10:49:54;;;;;;;;;;;;;;;19.46;65.17;100669.13;5119354;28;19912;-79
2023/05/20 10:52:44;;;;;;;;;;;;;;;19.66;61.93;100657.94;5097794;28;20386;-77
2023/05/20 10:55:37;;;;;;;;;;;;;;;19.67;62.69;100652.03;5099185;28;20386;-79
2023/05/20 10:58:37;;;;;;;;;;;;;;;19.62;61.93;100633.84;5095826;27;20382;-81
2023/05/20 11:01:29;;;;;;;;;;;;;;;19.77;61.46;100636.75;5095004;27;19911;-76
2023/05/20 11:04:19;;;;;;;;;;;;;;;19.87;61.98;100638.81;5123092;27;19914;-79
2023/05/20 11:07:11;;;;;;;;;;;;;;;19.89;60.12;100637.28;5099708;27;19912;-77
2023/05/20 11:10:03;;;;;;;;;;;;;;;19.82;59.95;100633.66;5093204;27;19912;-77
2023/05/20 11:12:52;;;;;;;;;;;;;;;19.88;62.64;100640.41;5108808;28;20386;-75
2023/05/20 11:15:44;;;;;;;;;;;;;;;19.99;62.28;100635.78;5111936;27;19911;-77
2023/05/20 11:18:36;;;;;;;;;;;;;;;20.03;61.83;100648.44;5099947;28;19911;-78
2023/05/20 11:21:28;;;;;;;;;;;;;;;19.78;61.37;100630.06;5102551;28;19915;-77
2023/05/20 11:24:30;;;;;;;;;;;;;;;19.72;59.27;100623.31;5100902;28;19911;-77
2023/05/20 11:27:22;;;;;;;;;;;;;;;19.69;60.49;100626.84;5114997;28;19911;-80
2023/05/20 11:30:14;;;;;;;;;;;;;;;19.54;61.70;100626.69;5106019;27;19911;-80
2023/05/20 11:33:02;;;;;;;;;;;;;;;19.50;61.05;100625.88;5136758;27;19915;-83
2023/05/20 11:35:54;;;;;;;;;;;;;;;19.47;60.65;100634.06;5120043;28;19916;-83
2023/05/20 11:38:46;;;;;;;;;;;;;;;19.39;60.20;100630.44;5108211;27;19912;-84
2023/05/20 11:41:38;;;;;;;;;;;;;;;19.32;59.52;100624.03;5110893;27;19923;-80
2023/05/20 11:44:30;;;;;;;;;;;;;;;19.26;60.35;100631.03;5101172;28;19912;-83
2023/05/20 11:47:26;;;;;;;;;;;;;;;19.10;60.02;100631.22;5099350;27;19911;-81
2023/05/20 11:50:19;;;;;;;;;;;;;;;19.04;60.48;100641.03;5125575;27;19919;-80
2023/05/20 11:53:10;;;;;;;;;;;;;;;18.90;61.32;100635.28;5111260;27;19916;-83
2023/05/20 11:56:00;;;;;;;;;;;;;;;18.82;60.90;100645.44;5102524;27;19911;-83
2023/05/20 11:58:47;;;;;;;;;;;;;;;18.83;61.06;100651.75;5100668;27;19911;-83
2023/05/20 12:01:39;;;;;;;;;;;;;;;18.75;62.49;100657.16;5110367;27;19916;-82
2023/05/20 12:04:28;;;;;;;;;;;;;;;18.66;62.21;100647.56;5103489;27;20443;-81
2023/05/20 12:07:20;;;;;;;;;;;;;;;18.69;62.65;100635.81;5127288;27;20281;-82
2023/05/20 12:10:12;;;;;;;;;;;;;;;18.71;63.04;100631.50;5113521;27;19911;-82
2023/05/20 12:13:02;;;;;;;;;;;;;;;18.76;62.84;100633.94;5103843;27;19916;-81
2023/05/20 12:15:51;;;;;;;;;;;;;;;18.72;63.06;100652.41;5106859;28;19911;-81
2023/05/20 12:18:40;;;;;;;;;;;;;;;18.71;63.44;100661.81;5111441;27;19912;-82
2023/05/20 12:21:32;;;;;;;;;;;;;;;18.77;62.85;100654.84;5116372;27;20298;-81
2023/05/20 12:24:24;;;;;;;;;;;;;;;18.82;62.70;100648.19;5092822;27;19915;-80
2023/05/20 12:27:17;;;;;;;;;;;;;;;18.76;63.59;100650.47;5118169;27;20294;-82
2023/05/20 12:30:09;;;;;;;;;;;;;;;18.89;62.96;100655.78;5125929;27;19916;-81
2023/05/20 12:33:01;;;;;;;;;;;;;;;18.80;62.58;100651.31;5120522;27;19916;-82
2023/05/20 12:35:50;;;;;;;;;;;;;;;18.89;62.50;100672.31;5095186;28;19915;-82
2023/05/20 12:38:42;;;;;;;;;;;;;;;18.85;62.68;100665.94;5104787;28;19911;-79
2023/05/20 12:41:34;;;;;;;;;;;;;;;18.83;62.88;100660.81;5094164;28;19919;-80
2023/05/20 12:44:26;;;;;;;;;;;;;;;18.92;63.00;100658.56;5101188;28;19911;-81
2023/05/20 12:47:18;;;;;;;;;;;;;;;18.98;62.54;100657.09;5115517;28;19916;-81
2023/05/20 12:50:08;;;;;;;;;;;;;;;19.00;62.60;100653.94;5097976;28;19916;-81
2023/05/20 12:52:59;;;;;;;;;;;;;;;19.07;61.86;100649.34;5117443;28;20289;-82
2023/05/20 12:55:52;;;;;;;;;;;;;;;18.96;61.57;100659.41;5098380;28;19911;-82
2023/05/20 12:58:44;;;;;;;;;;;;;;;19.06;61.30;100657.97;5112373;28;19912;-82
2023/05/20 13:01:34;;;;;;;;;;;;;;;19.14;61.65;100656.91;5111046;28;19916;-80
2023/05/20 13:04:23;;;;;;;;;;;;;;;19.15;61.45;100655.72;5114494;28;19916;-81
2023/05/20 13:07:15;;;;;;;;;;;;;;;19.21;61.44;100657.78;5113260;28;19912;-80
2023/05/20 13:10:04;;;;;;;;;;;;;;;19.27;60.88;100654.69;5116931;28;19911;-79
2023/05/20 13:12:56;;;;;;;;;;;;;;;19.25;62.10;100652.28;5114355;28;19916;-80
2023/05/20 13:15:50;;;;;;;;;;;;;;;19.32;62.45;100646.09;5097689;28;20374;-82
2023/05/20 13:18:42;;;;;;;;;;;;;;;19.33;61.92;100642.97;5098180;28;20370;-82
2023/05/20 13:21:34;;;;;;;;;;;;;;;19.31;61.57;100648.03;5108191;28;19919;-83
2023/05/20 13:24:26;;;;;;;;;;;;;;;19.38;61.61;100645.38;5105994;28;19915;-82
2023/05/20 13:27:15;;;;;;;;;;;;;;;19.46;61.08;100640.75;5110983;28;20378;-82
2023/05/20 13:30:07;;;;;;;;;;;;;;;19.44;61.44;100649.44;5106187;28;19912;-81
2023/05/20 13:32:59;;;;;;;;;;;;;;;19.51;60.50;100638.47;5105575;28;20317;-81
2023/05/20 13:35:51;;;;;;;;;;;;;;;19.49;60.97;100640.81;5113971;28;19911;-81
2023/05/20 13:38:43;;;;;;;;;;;;;;;19.50;61.07;100641.63;5103058;27;19911;-81
2023/05/20 13:41:36;;;;;;;;;;;;;;;19.46;61.05;100641.56;5120697;27;19915;-79
2023/05/20 13:44:27;;;;;;;;;;;;;;;19.55;60.73;100652.31;5108776;27;19915;-81
2023/05/20 13:47:17;;;;;;;;;;;;;;;19.44;61.88;100646.66;5100358;28;19915;-81
2023/05/20 13:50:09;;;;;;;;;;;;;;;19.49;61.01;100646.34;5102137;28;19915;-80
2023/05/20 13:52:57;;;;;;;;;;;;;;;19.50;60.76;100636.09;5107245;28;19915;-82
2023/05/20 13:55:47;;;;;;;;;;;;;;;19.48;61.18;100641.97;5113680;28;19915;-80
2023/05/20 13:58:41;;;;;;;;;;;;;;;19.50;61.70;100641.63;5102461;28;19916;-82
2023/05/20 14:01:31;;;;;;;;;;;;;;;19.46;61.87;100638.78;5115638;27;19919;-82
2023/05/20 14:04:23;;;;;;;;;;;;;;;19.46;61.57;100638.78;5095741;27;19911;-82
2023/05/20 14:07:15;;;;;;;;;;;;;;;19.54;61.97;100643.25;5108262;27;19916;-82
2023/05/20 14:10:07;;;;;;;;;;;;;;;19.53;62.16;100640.84;5102878;28;19912;-80
2023/05/20 14:12:57;;;;;;;;;;;;;;;19.41;62.50;100639.09;5123294;27;19924;-80
2023/05/20 14:15:49;;;;;;;;;;;;;;;19.50;62.04;100642.41;5117216;27;19915;-81
2023/05/20 14:18:41;;;;;;;;;;;;;;;19.60;61.22;100640.94;5091498;27;19911;-81
2023/05/20 14:21:33;;;;;;;;;;;;;;;19.55;62.29;100644.03;5112949;28;19912;-82
2023/05/20 14:24:23;;;;;;;;;;;;;;;19.59;62.22;100645.66;5125349;27;19915;-81
2023/05/20 14:27:14;;;;;;;;;;;;;;;19.57;62.52;100648.00;5097816;27;19911;-80
2023/05/20 14:30:07;;;;;;;;;;;;;;;19.57;61.90;100647.19;5109412;27;19919;-80
2023/05/20 14:32:59;;;;;;;;;;;;;;;19.54;62.61;100643.25;5116375;28;19920;-80
2023/05/20 14:35:49;;;;;;;;;;;;;;;19.64;63.16;100639.81;5113455;28;19912;-79
2023/05/20 14:38:40;;;;;;;;;;;;;;;19.72;62.28;100634.34;5085732;28;20377;-81
2023/05/20 14:41:32;;;;;;;;;;;;;;;19.84;62.08;100634.06;5083804;28;19912;-80